sensor_id;sensor_type;location;lat;lon;timestamp;temperature;humidity
4526;DHT22;2275;52.208;8.804;2022-09-24T00:01:53;14.30;1.90
4526;DHT22;2275;52.208;8.804;2022-09-24T00:04:23;14.40;1.00
4526;DHT22;2275;52.208;8.804;2022-09-24T00:06:48;14.30;3.70
4526;DHT22;2275;52.208;8.804;2022-09-24T00:09:17;14.30;3.30
4526;DHT22;2275;52.208;8.804;2022-09-24T00:11:43;14.30;7.60
4526;DHT22;2275;52.208;8.804;2022-09-24T00:14:10;14.30;10.00
4526;DHT22;2275;52.208;8.804;2022-09-24T00:16:38;14.20;11.10
4526;DHT22;2275;52.208;8.804;2022-09-24T00:19:05;14.20;12.10
4526;DHT22;2275;52.208;8.804;2022-09-24T00:21:33;14.20;14.10
4526;DHT22;2275;52.208;8.804;2022-09-24T00:24:00;14.20;14.30
4526;DHT22;2275;52.208;8.804;2022-09-24T00:26:27;14.10;15.40
4526;DHT22;2275;52.208;8.804;2022-09-24T00:28:59;14.10;18.70
4526;DHT22;2275;52.208;8.804;2022-09-24T00:31:26;14.00;22.60
4526;DHT22;2275;52.208;8.804;2022-09-24T00:33:54;14.00;21.70
4526;DHT22;2275;52.208;8.804;2022-09-24T00:36:21;13.90;23.60
4526;DHT22;2275;52.208;8.804;2022-09-24T00:38:49;13.90;24.20
4526;DHT22;2275;52.208;8.804;2022-09-24T00:41:16;13.90;26.20
4526;DHT22;2275;52.208;8.804;2022-09-24T00:43:42;13.90;28.00
4526;DHT22;2275;52.208;8.804;2022-09-24T00:48:45;13.90;28.70
4526;DHT22;2275;52.208;8.804;2022-09-24T00:51:12;13.90;28.90
4526;DHT22;2275;52.208;8.804;2022-09-24T00:53:39;13.80;28.70
4526;DHT22;2275;52.208;8.804;2022-09-24T00:56:07;13.90;30.00
4526;DHT22;2275;52.208;8.804;2022-09-24T00:58:33;13.80;30.00
4526;DHT22;2275;52.208;8.804;2022-09-24T01:01:04;13.90;28.00
4526;DHT22;2275;52.208;8.804;2022-09-24T01:03:31;13.80;27.40
4526;DHT22;2275;52.208;8.804;2022-09-24T01:05:58;13.80;31.10
4526;DHT22;2275;52.208;8.804;2022-09-24T01:08:26;13.80;29.70
4526;DHT22;2275;52.208;8.804;2022-09-24T01:14:02;13.80;34.20
4526;DHT22;2275;52.208;8.804;2022-09-24T01:16:30;13.80;34.30
4526;DHT22;2275;52.208;8.804;2022-09-24T01:18:59;13.80;34.70
4526;DHT22;2275;52.208;8.804;2022-09-24T01:21:27;13.80;33.40
4526;DHT22;2275;52.208;8.804;2022-09-24T01:24:00;13.80;33.80
4526;DHT22;2275;52.208;8.804;2022-09-24T01:26:47;13.70;35.60
4526;DHT22;2275;52.208;8.804;2022-09-24T01:29:23;13.70;38.90
4526;DHT22;2275;52.208;8.804;2022-09-24T01:31:52;13.70;38.40
4526;DHT22;2275;52.208;8.804;2022-09-24T01:34:18;13.60;37.50
4526;DHT22;2275;52.208;8.804;2022-09-24T01:36:44;13.50;43.00
4526;DHT22;2275;52.208;8.804;2022-09-24T01:39:11;13.60;42.80
4526;DHT22;2275;52.208;8.804;2022-09-24T01:41:39;13.60;41.10
4526;DHT22;2275;52.208;8.804;2022-09-24T01:44:06;13.60;41.90
4526;DHT22;2275;52.208;8.804;2022-09-24T01:46:36;13.60;38.30
4526;DHT22;2275;52.208;8.804;2022-09-24T01:49:01;13.60;38.10
4526;DHT22;2275;52.208;8.804;2022-09-24T01:51:33;13.60;39.50
4526;DHT22;2275;52.208;8.804;2022-09-24T01:54:00;13.60;39.60
4526;DHT22;2275;52.208;8.804;2022-09-24T01:56:32;13.60;39.40
4526;DHT22;2275;52.208;8.804;2022-09-24T01:59:01;13.60;43.00
4526;DHT22;2275;52.208;8.804;2022-09-24T02:01:30;13.60;41.10
4526;DHT22;2275;52.208;8.804;2022-09-24T02:03:57;13.60;41.60
4526;DHT22;2275;52.208;8.804;2022-09-24T02:06:30;13.60;37.60
4526;DHT22;2275;52.208;8.804;2022-09-24T02:08:56;13.60;34.50
4526;DHT22;2275;52.208;8.804;2022-09-24T02:11:23;13.60;35.40
4526;DHT22;2275;52.208;8.804;2022-09-24T02:13:55;13.50;37.20
4526;DHT22;2275;52.208;8.804;2022-09-24T02:16:20;13.60;36.20
4526;DHT22;2275;52.208;8.804;2022-09-24T02:18:48;13.60;33.40
4526;DHT22;2275;52.208;8.804;2022-09-24T02:21:16;13.60;33.40
4526;DHT22;2275;52.208;8.804;2022-09-24T02:23:46;13.60;33.50
4526;DHT22;2275;52.208;8.804;2022-09-24T02:26:13;13.50;36.00
4526;DHT22;2275;52.208;8.804;2022-09-24T02:28:41;13.50;35.50
4526;DHT22;2275;52.208;8.804;2022-09-24T02:31:12;13.50;39.50
4526;DHT22;2275;52.208;8.804;2022-09-24T02:33:37;13.40;40.90
4526;DHT22;2275;52.208;8.804;2022-09-24T02:36:10;13.40;39.90
4526;DHT22;2275;52.208;8.804;2022-09-24T02:38:38;13.40;43.00
4526;DHT22;2275;52.208;8.804;2022-09-24T02:41:05;13.40;41.80
4526;DHT22;2275;52.208;8.804;2022-09-24T02:43:33;13.40;42.90
4526;DHT22;2275;52.208;8.804;2022-09-24T02:46:01;13.40;44.50
4526;DHT22;2275;52.208;8.804;2022-09-24T02:48:28;13.30;48.00
4526;DHT22;2275;52.208;8.804;2022-09-24T02:50:54;13.30;51.60
4526;DHT22;2275;52.208;8.804;2022-09-24T02:53:22;13.20;53.30
4526;DHT22;2275;52.208;8.804;2022-09-24T02:55:48;13.20;52.60
4526;DHT22;2275;52.208;8.804;2022-09-24T02:58:16;13.20;53.00
4526;DHT22;2275;52.208;8.804;2022-09-24T03:00:43;13.10;51.80
4526;DHT22;2275;52.208;8.804;2022-09-24T03:03:10;13.10;53.60
4526;DHT22;2275;52.208;8.804;2022-09-24T03:05:37;13.10;54.80
4526;DHT22;2275;52.208;8.804;2022-09-24T03:08:04;13.10;56.40
4526;DHT22;2275;52.208;8.804;2022-09-24T03:10:32;13.10;55.60
4526;DHT22;2275;52.208;8.804;2022-09-24T03:12:59;13.10;55.10
4526;DHT22;2275;52.208;8.804;2022-09-24T03:15:26;13.10;54.00
4526;DHT22;2275;52.208;8.804;2022-09-24T03:17:54;13.10;54.40
4526;DHT22;2275;52.208;8.804;2022-09-24T03:20:21;13.00;53.80
4526;DHT22;2275;52.208;8.804;2022-09-24T03:22:50;13.00;57.60
4526;DHT22;2275;52.208;8.804;2022-09-24T03:25:18;13.00;56.70
4526;DHT22;2275;52.208;8.804;2022-09-24T03:27:46;12.90;59.40
4526;DHT22;2275;52.208;8.804;2022-09-24T03:30:13;12.90;58.80
4526;DHT22;2275;52.208;8.804;2022-09-24T03:32:46;12.90;62.00
4526;DHT22;2275;52.208;8.804;2022-09-24T03:35:13;12.90;62.60
4526;DHT22;2275;52.208;8.804;2022-09-24T03:37:41;12.90;64.90
4526;DHT22;2275;52.208;8.804;2022-09-24T03:40:08;13.00;66.30
4526;DHT22;2275;52.208;8.804;2022-09-24T03:42:36;13.00;64.90
4526;DHT22;2275;52.208;8.804;2022-09-24T03:45:03;13.00;64.60
4526;DHT22;2275;52.208;8.804;2022-09-24T03:47:31;13.00;65.50
4526;DHT22;2275;52.208;8.804;2022-09-24T03:49:58;13.00;64.40
4526;DHT22;2275;52.208;8.804;2022-09-24T03:52:25;13.00;63.40
4526;DHT22;2275;52.208;8.804;2022-09-24T03:54:52;13.00;63.00
4526;DHT22;2275;52.208;8.804;2022-09-24T03:57:19;13.10;59.50
4526;DHT22;2275;52.208;8.804;2022-09-24T03:59:47;13.00;59.40
4526;DHT22;2275;52.208;8.804;2022-09-24T04:02:14;13.00;58.80
4526;DHT22;2275;52.208;8.804;2022-09-24T04:04:41;13.00;61.20
4526;DHT22;2275;52.208;8.804;2022-09-24T04:07:08;13.00;60.20
4526;DHT22;2275;52.208;8.804;2022-09-24T04:09:35;13.00;61.30
4526;DHT22;2275;52.208;8.804;2022-09-24T04:12:03;13.00;60.30
4526;DHT22;2275;52.208;8.804;2022-09-24T04:14:30;12.90;57.70
4526;DHT22;2275;52.208;8.804;2022-09-24T04:16:57;12.90;58.40
4526;DHT22;2275;52.208;8.804;2022-09-24T04:19:24;12.90;58.60
4526;DHT22;2275;52.208;8.804;2022-09-24T04:21:51;12.90;59.20
4526;DHT22;2275;52.208;8.804;2022-09-24T04:24:18;12.90;59.70
4526;DHT22;2275;52.208;8.804;2022-09-24T04:26:45;12.90;62.40
4526;DHT22;2275;52.208;8.804;2022-09-24T04:29:13;12.90;63.40
4526;DHT22;2275;52.208;8.804;2022-09-24T04:31:39;12.90;63.70
4526;DHT22;2275;52.208;8.804;2022-09-24T04:34:08;12.90;63.00
4526;DHT22;2275;52.208;8.804;2022-09-24T04:36:34;12.90;61.00
4526;DHT22;2275;52.208;8.804;2022-09-24T04:39:01;12.90;62.20
4526;DHT22;2275;52.208;8.804;2022-09-24T04:41:29;13.00;63.70
4526;DHT22;2275;52.208;8.804;2022-09-24T04:43:56;13.00;61.10
4526;DHT22;2275;52.208;8.804;2022-09-24T04:46:23;13.00;60.00
4526;DHT22;2275;52.208;8.804;2022-09-24T04:48:50;13.00;59.30
4526;DHT22;2275;52.208;8.804;2022-09-24T04:51:18;13.00;57.10
4526;DHT22;2275;52.208;8.804;2022-09-24T04:53:49;13.00;56.50
4526;DHT22;2275;52.208;8.804;2022-09-24T05:05:53;12.90;60.00
4526;DHT22;2275;52.208;8.804;2022-09-24T05:08:22;12.90;57.50
4526;DHT22;2275;52.208;8.804;2022-09-24T05:10:49;12.90;57.20
4526;DHT22;2275;52.208;8.804;2022-09-24T05:13:15;12.80;59.60
4526;DHT22;2275;52.208;8.804;2022-09-24T05:15:44;12.80;61.80
4526;DHT22;2275;52.208;8.804;2022-09-24T05:18:10;12.80;63.60
4526;DHT22;2275;52.208;8.804;2022-09-24T05:20:37;12.80;64.30
4526;DHT22;2275;52.208;8.804;2022-09-24T05:23:05;12.70;66.30
4526;DHT22;2275;52.208;8.804;2022-09-24T05:25:32;12.70;66.70
4526;DHT22;2275;52.208;8.804;2022-09-24T05:28:00;12.80;64.60
4526;DHT22;2275;52.208;8.804;2022-09-24T05:30:27;12.70;63.90
4526;DHT22;2275;52.208;8.804;2022-09-24T05:32:54;12.70;67.50
4526;DHT22;2275;52.208;8.804;2022-09-24T05:35:22;12.70;68.60
4526;DHT22;2275;52.208;8.804;2022-09-24T05:37:49;12.70;71.30
4526;DHT22;2275;52.208;8.804;2022-09-24T05:40:18;12.60;70.30
4526;DHT22;2275;52.208;8.804;2022-09-24T05:42:57;12.70;69.50
4526;DHT22;2275;52.208;8.804;2022-09-24T05:45:19;12.60;69.30
4526;DHT22;2275;52.208;8.804;2022-09-24T05:47:46;12.60;71.70
4526;DHT22;2275;52.208;8.804;2022-09-24T05:50:14;12.60;70.90
4526;DHT22;2275;52.208;8.804;2022-09-24T05:52:41;12.60;72.90
4526;DHT22;2275;52.208;8.804;2022-09-24T05:55:09;12.70;72.70
4526;DHT22;2275;52.208;8.804;2022-09-24T05:57:37;12.80;72.60
4526;DHT22;2275;52.208;8.804;2022-09-24T06:00:05;12.80;70.90
4526;DHT22;2275;52.208;8.804;2022-09-24T06:02:33;12.80;70.70
4526;DHT22;2275;52.208;8.804;2022-09-24T06:05:00;12.80;69.90
4526;DHT22;2275;52.208;8.804;2022-09-24T06:07:28;12.90;70.20
4526;DHT22;2275;52.208;8.804;2022-09-24T06:09:56;12.80;72.00
4526;DHT22;2275;52.208;8.804;2022-09-24T06:12:26;12.90;73.10
4526;DHT22;2275;52.208;8.804;2022-09-24T06:14:53;12.80;72.20
4526;DHT22;2275;52.208;8.804;2022-09-24T06:17:20;12.90;71.10
4526;DHT22;2275;52.208;8.804;2022-09-24T06:19:47;12.90;68.70
4526;DHT22;2275;52.208;8.804;2022-09-24T06:22:14;12.90;70.50
4526;DHT22;2275;52.208;8.804;2022-09-24T06:24:41;13.00;72.30
4526;DHT22;2275;52.208;8.804;2022-09-24T06:27:09;12.90;68.70
4526;DHT22;2275;52.208;8.804;2022-09-24T06:29:38;13.00;71.20
4526;DHT22;2275;52.208;8.804;2022-09-24T06:32:06;13.00;71.50
4526;DHT22;2275;52.208;8.804;2022-09-24T06:34:35;13.00;70.60
4526;DHT22;2275;52.208;8.804;2022-09-24T06:37:16;13.00;72.50
4526;DHT22;2275;52.208;8.804;2022-09-24T06:40:01;13.10;74.00
4526;DHT22;2275;52.208;8.804;2022-09-24T06:42:31;13.20;75.10
4526;DHT22;2275;52.208;8.804;2022-09-24T06:44:58;13.20;74.20
4526;DHT22;2275;52.208;8.804;2022-09-24T06:47:25;13.20;74.30
4526;DHT22;2275;52.208;8.804;2022-09-24T06:49:52;13.30;74.00
4526;DHT22;2275;52.208;8.804;2022-09-24T06:52:20;13.30;74.20
4526;DHT22;2275;52.208;8.804;2022-09-24T06:54:47;13.40;73.80
4526;DHT22;2275;52.208;8.804;2022-09-24T06:57:15;13.40;72.30
4526;DHT22;2275;52.208;8.804;2022-09-24T06:59:42;13.40;72.10
4526;DHT22;2275;52.208;8.804;2022-09-24T07:02:09;13.50;70.80
4526;DHT22;2275;52.208;8.804;2022-09-24T07:04:36;13.60;73.30
4526;DHT22;2275;52.208;8.804;2022-09-24T07:07:04;13.60;71.80
4526;DHT22;2275;52.208;8.804;2022-09-24T07:09:37;13.70;71.90
4526;DHT22;2275;52.208;8.804;2022-09-24T07:12:04;13.60;71.70
4526;DHT22;2275;52.208;8.804;2022-09-24T07:14:32;13.70;73.50
4526;DHT22;2275;52.208;8.804;2022-09-24T07:16:59;13.70;76.80
4526;DHT22;2275;52.208;8.804;2022-09-24T07:19:26;13.80;70.00
4526;DHT22;2275;52.208;8.804;2022-09-24T07:21:54;13.60;62.10
4526;DHT22;2275;52.208;8.804;2022-09-24T07:24:22;13.60;60.60
4526;DHT22;2275;52.208;8.804;2022-09-24T07:26:50;13.70;64.20
4526;DHT22;2275;52.208;8.804;2022-09-24T07:29:17;13.70;62.30
4526;DHT22;2275;52.208;8.804;2022-09-24T07:31:44;13.60;53.40
4526;DHT22;2275;52.208;8.804;2022-09-24T07:34:12;13.50;50.00
4526;DHT22;2275;52.208;8.804;2022-09-24T07:36:40;13.50;54.70
4526;DHT22;2275;52.208;8.804;2022-09-24T07:39:07;13.50;54.60
4526;DHT22;2275;52.208;8.804;2022-09-24T07:41:34;13.50;57.40
4526;DHT22;2275;52.208;8.804;2022-09-24T07:44:02;13.60;58.40
4526;DHT22;2275;52.208;8.804;2022-09-24T07:46:29;13.70;58.00
4526;DHT22;2275;52.208;8.804;2022-09-24T07:48:56;13.70;57.60
4526;DHT22;2275;52.208;8.804;2022-09-24T07:51:24;13.70;51.00
4526;DHT22;2275;52.208;8.804;2022-09-24T07:53:52;13.80;49.40
4526;DHT22;2275;52.208;8.804;2022-09-24T07:56:20;13.70;48.60
4526;DHT22;2275;52.208;8.804;2022-09-24T07:58:50;13.80;52.10
4526;DHT22;2275;52.208;8.804;2022-09-24T08:01:18;13.80;54.70
4526;DHT22;2275;52.208;8.804;2022-09-24T08:03:45;13.80;49.70
4526;DHT22;2275;52.208;8.804;2022-09-24T08:06:14;13.90;47.60
4526;DHT22;2275;52.208;8.804;2022-09-24T08:08:42;13.80;51.50
4526;DHT22;2275;52.208;8.804;2022-09-24T08:11:11;13.90;56.10
4526;DHT22;2275;52.208;8.804;2022-09-24T08:13:38;14.00;58.60
4526;DHT22;2275;52.208;8.804;2022-09-24T08:16:05;14.10;53.90
4526;DHT22;2275;52.208;8.804;2022-09-24T08:18:32;14.20;53.70
4526;DHT22;2275;52.208;8.804;2022-09-24T08:21:04;14.20;54.00
4526;DHT22;2275;52.208;8.804;2022-09-24T08:23:32;14.30;56.80
4526;DHT22;2275;52.208;8.804;2022-09-24T08:26:01;14.40;53.80
4526;DHT22;2275;52.208;8.804;2022-09-24T08:28:29;14.50;45.40
4526;DHT22;2275;52.208;8.804;2022-09-24T08:30:58;14.50;46.80
4526;DHT22;2275;52.208;8.804;2022-09-24T08:33:26;14.50;45.60
4526;DHT22;2275;52.208;8.804;2022-09-24T08:35:52;14.50;42.70
4526;DHT22;2275;52.208;8.804;2022-09-24T08:38:19;14.50;44.40
4526;DHT22;2275;52.208;8.804;2022-09-24T08:40:56;14.60;47.50
4526;DHT22;2275;52.208;8.804;2022-09-24T08:43:35;14.70;47.60
4526;DHT22;2275;52.208;8.804;2022-09-24T08:45:59;14.70;46.00
4526;DHT22;2275;52.208;8.804;2022-09-24T08:48:32;14.70;43.60
4526;DHT22;2275;52.208;8.804;2022-09-24T08:50:59;14.70;40.20
4526;DHT22;2275;52.208;8.804;2022-09-24T08:53:30;14.70;43.40
4526;DHT22;2275;52.208;8.804;2022-09-24T08:55:57;14.70;50.20
4526;DHT22;2275;52.208;8.804;2022-09-24T08:58:34;14.70;46.80
4526;DHT22;2275;52.208;8.804;2022-09-24T09:01:04;14.70;43.50
4526;DHT22;2275;52.208;8.804;2022-09-24T09:03:53;14.60;44.80
4526;DHT22;2275;52.208;8.804;2022-09-24T09:06:28;14.70;42.20
4526;DHT22;2275;52.208;8.804;2022-09-24T09:08:57;14.70;44.80
4526;DHT22;2275;52.208;8.804;2022-09-24T09:11:23;14.70;44.10
4526;DHT22;2275;52.208;8.804;2022-09-24T09:13:51;14.60;38.80
4526;DHT22;2275;52.208;8.804;2022-09-24T09:16:24;14.60;43.80
4526;DHT22;2275;52.208;8.804;2022-09-24T09:18:52;14.50;49.20
4526;DHT22;2275;52.208;8.804;2022-09-24T09:21:27;14.60;50.90
4526;DHT22;2275;52.208;8.804;2022-09-24T09:23:53;14.60;47.90
4526;DHT22;2275;52.208;8.804;2022-09-24T09:26:19;14.60;53.10
4526;DHT22;2275;52.208;8.804;2022-09-24T09:28:51;14.70;52.70
4526;DHT22;2275;52.208;8.804;2022-09-24T09:31:31;14.70;47.10
4526;DHT22;2275;52.208;8.804;2022-09-24T09:34:07;14.70;48.10
4526;DHT22;2275;52.208;8.804;2022-09-24T09:36:41;14.80;46.40
4526;DHT22;2275;52.208;8.804;2022-09-24T09:40:25;14.90;53.10
4526;DHT22;2275;52.208;8.804;2022-09-24T09:42:23;15.00;49.10
4526;DHT22;2275;52.208;8.804;2022-09-24T09:44:47;14.90;45.80
4526;DHT22;2275;52.208;8.804;2022-09-24T09:47:21;15.00;45.40
4526;DHT22;2275;52.208;8.804;2022-09-24T09:49:46;15.00;42.90
4526;DHT22;2275;52.208;8.804;2022-09-24T09:52:15;15.00;47.00
4526;DHT22;2275;52.208;8.804;2022-09-24T09:54:42;15.00;38.60
4526;DHT22;2275;52.208;8.804;2022-09-24T09:57:13;15.10;45.60
4526;DHT22;2275;52.208;8.804;2022-09-24T09:59:39;15.00;36.10
4526;DHT22;2275;52.208;8.804;2022-09-24T10:02:09;15.00;44.70
4526;DHT22;2275;52.208;8.804;2022-09-24T10:04:38;15.00;45.40
4526;DHT22;2275;52.208;8.804;2022-09-24T10:07:12;15.00;50.70
4526;DHT22;2275;52.208;8.804;2022-09-24T10:09:40;15.00;46.90
4526;DHT22;2275;52.208;8.804;2022-09-24T10:12:08;15.10;47.00
4526;DHT22;2275;52.208;8.804;2022-09-24T10:14:35;15.20;45.40
4526;DHT22;2275;52.208;8.804;2022-09-24T10:17:05;15.20;48.70
4526;DHT22;2275;52.208;8.804;2022-09-24T10:19:34;15.30;42.50
4526;DHT22;2275;52.208;8.804;2022-09-24T10:22:06;15.30;47.10
4526;DHT22;2275;52.208;8.804;2022-09-24T10:24:32;15.30;47.00
4526;DHT22;2275;52.208;8.804;2022-09-24T10:26:59;15.30;46.90
4526;DHT22;2275;52.208;8.804;2022-09-24T10:29:30;15.30;42.00
4526;DHT22;2275;52.208;8.804;2022-09-24T10:32:03;15.20;35.90
4526;DHT22;2275;52.208;8.804;2022-09-24T10:34:30;15.10;41.40
4526;DHT22;2275;52.208;8.804;2022-09-24T10:37:00;15.10;44.20
4526;DHT22;2275;52.208;8.804;2022-09-24T10:39:27;15.00;47.40
4526;DHT22;2275;52.208;8.804;2022-09-24T10:41:54;15.10;52.60
4526;DHT22;2275;52.208;8.804;2022-09-24T10:44:25;15.10;44.80
4526;DHT22;2275;52.208;8.804;2022-09-24T10:47:12;15.00;44.10
4526;DHT22;2275;52.208;8.804;2022-09-24T10:52:29;15.10;53.50
4526;DHT22;2275;52.208;8.804;2022-09-24T10:55:00;15.20;50.00
4526;DHT22;2275;52.208;8.804;2022-09-24T10:58:36;15.20;49.90
4526;DHT22;2275;52.208;8.804;2022-09-24T11:00:22;15.20;45.50
4526;DHT22;2275;52.208;8.804;2022-09-24T11:05:34;15.20;53.90
4526;DHT22;2275;52.208;8.804;2022-09-24T11:08:03;15.20;53.70
4526;DHT22;2275;52.208;8.804;2022-09-24T11:10:46;15.20;47.30
4526;DHT22;2275;52.208;8.804;2022-09-24T11:13:01;15.10;48.80
4526;DHT22;2275;52.208;8.804;2022-09-24T11:15:33;15.20;48.20
4526;DHT22;2275;52.208;8.804;2022-09-24T11:18:17;15.10;53.60
4526;DHT22;2275;52.208;8.804;2022-09-24T11:20:49;15.10;43.80
4526;DHT22;2275;52.208;8.804;2022-09-24T11:23:27;15.00;44.90
4526;DHT22;2275;52.208;8.804;2022-09-24T11:26:12;15.10;51.40
4526;DHT22;2275;52.208;8.804;2022-09-24T11:34:41;15.30;47.60
4526;DHT22;2275;52.208;8.804;2022-09-24T11:40:22;15.10;26.40
4526;DHT22;2275;52.208;8.804;2022-09-24T11:48:04;15.00;34.70
4526;DHT22;2275;52.208;8.804;2022-09-24T11:53:16;15.00;41.80
4526;DHT22;2275;52.208;8.804;2022-09-24T11:55:42;15.00;40.20
4526;DHT22;2275;52.208;8.804;2022-09-24T11:58:13;15.00;44.00
4526;DHT22;2275;52.208;8.804;2022-09-24T12:00:41;15.00;45.60
4526;DHT22;2275;52.208;8.804;2022-09-24T12:03:18;15.00;40.10
4526;DHT22;2275;52.208;8.804;2022-09-24T12:05:47;14.90;44.70
4526;DHT22;2275;52.208;8.804;2022-09-24T12:08:20;15.00;49.20
4526;DHT22;2275;52.208;8.804;2022-09-24T12:10:56;15.00;46.80
4526;DHT22;2275;52.208;8.804;2022-09-24T12:13:40;15.00;48.60
4526;DHT22;2275;52.208;8.804;2022-09-24T12:16:11;15.00;50.90
4526;DHT22;2275;52.208;8.804;2022-09-24T12:18:51;15.10;55.90
4526;DHT22;2275;52.208;8.804;2022-09-24T12:21:17;15.10;53.60
4526;DHT22;2275;52.208;8.804;2022-09-24T12:23:43;15.10;55.90
4526;DHT22;2275;52.208;8.804;2022-09-24T12:26:10;15.20;62.30
4526;DHT22;2275;52.208;8.804;2022-09-24T12:31:59;15.40;62.70
4526;DHT22;2275;52.208;8.804;2022-09-24T12:34:40;15.40;58.90
4526;DHT22;2275;52.208;8.804;2022-09-24T12:37:09;15.50;58.10
4526;DHT22;2275;52.208;8.804;2022-09-24T12:39:37;15.50;61.40
4526;DHT22;2275;52.208;8.804;2022-09-24T12:42:03;15.60;65.90
4526;DHT22;2275;52.208;8.804;2022-09-24T12:44:36;15.50;61.40
4526;DHT22;2275;52.208;8.804;2022-09-24T12:47:01;15.60;65.50
4526;DHT22;2275;52.208;8.804;2022-09-24T12:49:33;15.60;67.00
4526;DHT22;2275;52.208;8.804;2022-09-24T12:54:37;15.80;64.80
4526;DHT22;2275;52.208;8.804;2022-09-24T12:57:16;15.90;58.20
4526;DHT22;2275;52.208;8.804;2022-09-24T12:59:48;15.80;60.70
4526;DHT22;2275;52.208;8.804;2022-09-24T13:02:23;16.00;68.50
4526;DHT22;2275;52.208;8.804;2022-09-24T13:07:38;16.20;59.00
4526;DHT22;2275;52.208;8.804;2022-09-24T13:10:20;16.20;56.50
4526;DHT22;2275;52.208;8.804;2022-09-24T13:12:47;16.20;49.40
4526;DHT22;2275;52.208;8.804;2022-09-24T13:17:58;16.10;50.70
4526;DHT22;2275;52.208;8.804;2022-09-24T13:20:22;16.10;57.20
4526;DHT22;2275;52.208;8.804;2022-09-24T13:25:32;16.20;58.00
4526;DHT22;2275;52.208;8.804;2022-09-24T13:28:00;16.10;60.60
4526;DHT22;2275;52.208;8.804;2022-09-24T13:30:33;16.30;69.80
4526;DHT22;2275;52.208;8.804;2022-09-24T13:33:35;16.30;69.00
4526;DHT22;2275;52.208;8.804;2022-09-24T13:35:59;16.40;53.30
4526;DHT22;2275;52.208;8.804;2022-09-24T13:38:20;16.20;41.30
4526;DHT22;2275;52.208;8.804;2022-09-24T13:40:52;16.10;46.10
4526;DHT22;2275;52.208;8.804;2022-09-24T13:43:18;16.00;50.90
4526;DHT22;2275;52.208;8.804;2022-09-24T13:45:44;16.10;55.50
4526;DHT22;2275;52.208;8.804;2022-09-24T13:48:20;16.00;
4526;DHT22;2275;52.208;8.804;2022-09-24T13:50:48;15.90;51.10
4526;DHT22;2275;52.208;8.804;2022-09-24T13:53:17;15.90;60.30
4526;DHT22;2275;52.208;8.804;2022-09-24T13:55:45;15.90;63.50
4526;DHT22;2275;52.208;8.804;2022-09-24T14:00:50;15.90;61.70
4526;DHT22;2275;52.208;8.804;2022-09-24T14:03:21;15.80;54.70
4526;DHT22;2275;52.208;8.804;2022-09-24T14:05:47;15.70;58.60
4526;DHT22;2275;52.208;8.804;2022-09-24T14:08:15;15.70;62.40
4526;DHT22;2275;52.208;8.804;2022-09-24T14:10:42;15.60;60.00
4526;DHT22;2275;52.208;8.804;2022-09-24T14:13:15;15.50;57.60
4526;DHT22;2275;52.208;8.804;2022-09-24T14:15:50;15.40;56.60
4526;DHT22;2275;52.208;8.804;2022-09-24T14:18:16;15.30;62.90
4526;DHT22;2275;52.208;8.804;2022-09-24T14:20:47;15.30;65.90
4526;DHT22;2275;52.208;8.804;2022-09-24T14:23:15;15.40;66.50
4526;DHT22;2275;52.208;8.804;2022-09-24T14:25:39;15.30;64.50
4526;DHT22;2275;52.208;8.804;2022-09-24T14:28:06;15.30;60.80
4526;DHT22;2275;52.208;8.804;2022-09-24T14:30:33;15.30;59.40
4526;DHT22;2275;52.208;8.804;2022-09-24T14:33:04;15.40;55.00
4526;DHT22;2275;52.208;8.804;2022-09-24T14:35:33;15.30;52.20
4526;DHT22;2275;52.208;8.804;2022-09-24T14:38:05;15.40;52.30
4526;DHT22;2275;52.208;8.804;2022-09-24T14:40:41;15.40;45.10
4526;DHT22;2275;52.208;8.804;2022-09-24T14:43:13;15.50;43.60
4526;DHT22;2275;52.208;8.804;2022-09-24T14:45:36;15.50;43.20
4526;DHT22;2275;52.208;8.804;2022-09-24T14:50:53;15.60;48.80
4526;DHT22;2275;52.208;8.804;2022-09-24T14:53:22;15.60;43.60
4526;DHT22;2275;52.208;8.804;2022-09-24T14:55:50;15.60;41.40
4526;DHT22;2275;52.208;8.804;2022-09-24T14:58:30;15.60;44.60
4526;DHT22;2275;52.208;8.804;2022-09-24T15:00:53;15.60;38.80
4526;DHT22;2275;52.208;8.804;2022-09-24T15:03:25;15.50;34.80
4526;DHT22;2275;52.208;8.804;2022-09-24T15:05:48;15.50;34.20
4526;DHT22;2275;52.208;8.804;2022-09-24T15:08:31;15.40;36.60
4526;DHT22;2275;52.208;8.804;2022-09-24T15:11:02;15.40;38.50
4526;DHT22;2275;52.208;8.804;2022-09-24T15:13:36;15.40;42.10
4526;DHT22;2275;52.208;8.804;2022-09-24T15:16:05;15.40;43.50
4526;DHT22;2275;52.208;8.804;2022-09-24T15:18:32;15.40;49.40
4526;DHT22;2275;52.208;8.804;2022-09-24T15:20:59;15.40;50.60
4526;DHT22;2275;52.208;8.804;2022-09-24T15:23:26;15.30;41.40
4526;DHT22;2275;52.208;8.804;2022-09-24T15:25:53;15.20;48.10
4526;DHT22;2275;52.208;8.804;2022-09-24T15:28:20;15.20;51.70
4526;DHT22;2275;52.208;8.804;2022-09-24T15:30:51;15.10;55.60
4526;DHT22;2275;52.208;8.804;2022-09-24T15:33:20;15.00;54.80
4526;DHT22;2275;52.208;8.804;2022-09-24T15:35:47;15.00;55.90
4526;DHT22;2275;52.208;8.804;2022-09-24T15:38:16;15.00;58.80
4526;DHT22;2275;52.208;8.804;2022-09-24T15:40:43;15.00;58.00
4526;DHT22;2275;52.208;8.804;2022-09-24T15:43:18;14.90;60.70
4526;DHT22;2275;52.208;8.804;2022-09-24T15:45:44;14.90;61.90
4526;DHT22;2275;52.208;8.804;2022-09-24T15:48:11;14.90;65.60
4526;DHT22;2275;52.208;8.804;2022-09-24T15:50:38;14.80;63.90
4526;DHT22;2275;52.208;8.804;2022-09-24T15:53:05;14.80;69.20
4526;DHT22;2275;52.208;8.804;2022-09-24T15:55:33;14.80;72.40
4526;DHT22;2275;52.208;8.804;2022-09-24T15:57:59;14.90;70.60
4526;DHT22;2275;52.208;8.804;2022-09-24T16:00:26;14.80;68.20
4526;DHT22;2275;52.208;8.804;2022-09-24T16:02:55;14.80;69.60
4526;DHT22;2275;52.208;8.804;2022-09-24T16:05:22;14.80;70.20
4526;DHT22;2275;52.208;8.804;2022-09-24T16:07:49;14.80;70.70
4526;DHT22;2275;52.208;8.804;2022-09-24T16:10:17;14.80;69.60
4526;DHT22;2275;52.208;8.804;2022-09-24T16:12:44;14.70;69.20
4526;DHT22;2275;52.208;8.804;2022-09-24T16:15:13;14.70;69.70
4526;DHT22;2275;52.208;8.804;2022-09-24T16:17:39;14.70;69.50
4526;DHT22;2275;52.208;8.804;2022-09-24T16:20:06;14.70;70.60
4526;DHT22;2275;52.208;8.804;2022-09-24T16:22:33;14.70;70.00
4526;DHT22;2275;52.208;8.804;2022-09-24T16:25:00;14.70;70.30
4526;DHT22;2275;52.208;8.804;2022-09-24T16:27:28;14.70;71.00
4526;DHT22;2275;52.208;8.804;2022-09-24T16:29:56;14.80;70.30
4526;DHT22;2275;52.208;8.804;2022-09-24T16:32:23;14.70;69.40
4526;DHT22;2275;52.208;8.804;2022-09-24T16:34:49;14.80;67.00
4526;DHT22;2275;52.208;8.804;2022-09-24T16:37:16;14.80;66.80
4526;DHT22;2275;52.208;8.804;2022-09-24T16:39:44;14.70;66.60
4526;DHT22;2275;52.208;8.804;2022-09-24T16:42:11;14.80;67.50
4526;DHT22;2275;52.208;8.804;2022-09-24T16:44:39;14.70;68.80
4526;DHT22;2275;52.208;8.804;2022-09-24T16:47:06;14.70;70.90
4526;DHT22;2275;52.208;8.804;2022-09-24T16:49:33;14.70;71.90
4526;DHT22;2275;52.208;8.804;2022-09-24T16:52:00;14.70;72.40
4526;DHT22;2275;52.208;8.804;2022-09-24T16:54:27;14.70;70.30
4526;DHT22;2275;52.208;8.804;2022-09-24T16:56:55;14.70;72.80
4526;DHT22;2275;52.208;8.804;2022-09-24T16:59:22;14.70;74.60
4526;DHT22;2275;52.208;8.804;2022-09-24T17:01:49;14.70;73.70
4526;DHT22;2275;52.208;8.804;2022-09-24T17:04:16;14.70;73.10
4526;DHT22;2275;52.208;8.804;2022-09-24T17:06:44;14.70;71.10
4526;DHT22;2275;52.208;8.804;2022-09-24T17:09:11;14.60;75.20
4526;DHT22;2275;52.208;8.804;2022-09-24T17:11:43;14.70;73.00